Time;durP1;ratioP1;P1;durP2;ratioP2;P2;SDS_P1;SDS_P2;PMS_P1;PMS_P2;Temp;Humidity;BMP_temperature;BMP_pressure;BME280_temperature;BME280_humidity;BME280_pressure;Samples;Min_cycle;Max_cycle;Signal;HPM_P1;HPM_P2
2023/03/15 05:14:32;;;;;;;8.57;1.08;;;12.40;56.00;;;;;;5216605;24;20305;-71
2023/03/15 05:17:04;;;;;;;10.63;1.23;;;12.60;55.30;;;;;;4793595;29;20561;-72
2023/03/15 05:19:33;;;;;;;10.60;1.13;;;12.80;55.50;;;;;;4807746;29;20391;-71
2023/03/15 05:22:02;;;;;;;16.70;1.90;;;12.90;55.40;;;;;;4792179;29;20058;-72
2023/03/15 05:24:29;;;;;;;17.30;2.45;;;13.10;55.60;;;;;;4809645;29;20455;-73
2023/03/15 05:26:54;;;;;;;16.08;2.53;;;13.30;55.80;;;;;;4799952;29;20139;-75
2023/03/15 05:29:21;;;;;;;30.08;3.60;;;13.40;55.40;;;;;;4796159;29;20467;-73
2023/03/15 05:31:48;;;;;;;25.27;2.67;;;13.50;56.40;;;;;;4801217;29;20130;-73
2023/03/15 05:34:14;;;;;;;21.58;3.05;;;13.60;56.00;;;;;;4807453;29;20374;-75
2023/03/15 05:36:40;;;;;;;23.67;2.45;;;13.70;56.10;;;;;;4807762;29;20047;-76
2023/03/15 05:39:07;;;;;;;20.67;2.30;;;13.70;56.70;;;;;;4808141;29;20383;-76
2023/03/15 05:41:33;;;;;;;20.02;2.33;;;13.80;56.90;;;;;;4807425;29;20169;-75
2023/03/15 05:43:59;;;;;;;22.90;2.70;;;13.90;56.90;;;;;;4804296;29;20051;-74
2023/03/15 05:46:25;;;;;;;15.15;2.20;;;14.00;56.90;;;;;;4806368;29;20047;-76
2023/03/15 05:48:52;;;;;;;13.23;1.98;;;14.00;57.20;;;;;;4790453;29;20039;-74
2023/03/15 05:51:18;;;;;;;23.95;3.30;;;14.10;57.50;;;;;;4807760;29;20091;-74
2023/03/15 05:53:44;;;;;;;21.40;2.95;;;14.20;58.10;;;;;;4807958;29;20155;-75
2023/03/15 05:56:10;;;;;;;19.45;2.67;;;14.20;58.80;;;;;;4807714;29;20367;-76
2023/03/15 05:58:38;;;;;;;22.90;3.95;;;14.30;59.10;;;;;;4795481;29;20057;-79
2023/03/15 06:01:04;;;;;;;34.65;3.30;;;14.40;59.50;;;;;;4791039;29;20118;-76
2023/03/15 06:03:30;;;;;;;23.30;2.65;;;14.40;59.10;;;;;;4790542;29;20126;-77
2023/03/15 06:05:59;;;;;;;27.25;3.13;;;14.40;59.00;;;;;;4790676;29;20131;-76
2023/03/15 06:08:24;;;;;;;24.17;3.20;;;14.50;59.20;;;;;;4799863;29;20094;-76
2023/03/15 06:10:54;;;;;;;24.35;3.03;;;14.50;59.10;;;;;;4791481;29;20484;-75
2023/03/15 06:13:19;;;;;;;48.40;5.22;;;14.60;59.30;;;;;;4807564;29;20115;-74
2023/03/15 06:15:46;;;;;;;40.70;4.68;;;14.70;59.80;;;;;;4805809;29;20128;-79
2023/03/15 06:18:12;;;;;;;39.85;4.75;;;14.70;60.50;;;;;;4800063;29;20036;-78
2023/03/15 06:20:39;;;;;;;31.98;4.68;;;14.80;61.00;;;;;;4802870;29;20047;-78
2023/03/15 06:23:05;;;;;;;27.20;2.92;;;14.90;61.00;;;;;;4806797;29;20471;-76
2023/03/15 06:25:31;;;;;;;33.97;3.30;;;14.90;60.60;;;;;;4781601;30;20059;-76
2023/03/15 06:27:56;;;;;;;17.45;2.78;;;14.90;58.40;;;;;;4804115;29;20049;-76
2023/03/15 06:30:22;;;;;;;19.65;2.40;;;14.90;56.30;;;;;;4806894;29;20043;-78
2023/03/15 06:32:48;;;;;;;18.90;2.78;;;14.90;54.70;;;;;;4807493;29;20112;-78
2023/03/15 06:35:14;;;;;;;29.25;3.92;;;14.80;54.80;;;;;;4804640;29;20111;-79
2023/03/15 06:37:42;;;;;;;24.30;3.40;;;14.80;55.40;;;;;;4777640;30;20134;-75
2023/03/15 06:40:10;;;;;;;51.75;6.45;;;14.80;55.70;;;;;;4796096;29;20059;-72
2023/03/15 06:42:36;;;;;;;41.42;4.60;;;14.70;56.30;;;;;;4806251;29;20119;-78
2023/03/15 06:45:03;;;;;;;57.38;5.82;;;14.70;56.90;;;;;;4789494;29;20046;-75
2023/03/15 06:47:29;;;;;;;52.47;5.95;;;14.60;57.10;;;;;;4798536;29;20532;-76
2023/03/15 06:49:54;;;;;;;53.80;6.40;;;14.60;57.70;;;;;;4804604;29;20055;-72
2023/03/15 06:52:20;;;;;;;47.38;5.95;;;14.50;58.20;;;;;;4828493;29;20046;-72
2023/03/15 06:54:46;;;;;;;43.42;5.70;;;14.50;58.30;;;;;;4806354;29;20089;-71
2023/03/15 06:57:11;;;;;;;33.70;4.55;;;14.40;58.10;;;;;;4810442;29;20054;-72
2023/03/15 06:59:37;;;;;;;32.88;5.07;;;14.30;57.20;;;;;;4810191;29;20055;-72
2023/03/15 07:02:03;;;;;;;34.53;4.88;;;14.30;56.70;;;;;;4810215;29;20052;-71
2023/03/15 07:04:29;;;;;;;22.05;3.47;;;14.20;56.60;;;;;;4810469;29;20047;-71
2023/03/15 07:06:54;;;;;;;29.40;4.20;;;14.10;56.70;;;;;;4816614;29;20477;-72
2023/03/15 07:09:20;;;;;;;34.13;3.70;;;14.00;56.70;;;;;;4828634;29;20062;-71
2023/03/15 07:11:46;;;;;;;27.40;3.85;;;14.00;56.90;;;;;;4828417;29;20119;-71
2023/03/15 07:14:12;;;;;;;23.58;3.45;;;13.90;56.90;;;;;;4828264;29;20058;-71
2023/03/15 07:16:37;;;;;;;24.42;3.05;;;13.80;57.10;;;;;;4828091;29;20328;-72
2023/03/15 07:19:03;;;;;;;21.35;2.38;;;13.80;57.20;;;;;;4828149;29;20126;-71
2023/03/15 07:21:29;;;;;;;21.55;3.45;;;13.80;57.20;;;;;;4828045;29;20053;-74
2023/03/15 07:23:55;;;;;;;21.33;3.08;;;13.80;57.50;;;;;;4779413;29;20067;-72
2023/03/15 07:26:21;;;;;;;18.63;3.05;;;13.70;57.60;;;;;;4792100;30;20055;-72
2023/03/15 07:28:46;;;;;;;12.52;1.67;;;13.70;57.70;;;;;;4803300;29;20051;-71
2023/03/15 07:31:13;;;;;;;15.15;2.22;;;13.60;57.50;;;;;;4809970;29;20061;-71
2023/03/15 07:33:39;;;;;;;11.57;1.80;;;13.60;57.70;;;;;;4809699;29;20116;-72
2023/03/15 07:36:06;;;;;;;14.60;2.17;;;13.50;57.70;;;;;;4809608;29;20053;-71
2023/03/15 07:38:32;;;;;;;13.75;2.15;;;13.50;57.70;;;;;;4793336;29;20055;-72
2023/03/15 07:41:01;;;;;;;25.55;2.45;;;13.50;58.20;;;;;;4792108;29;20555;-75
2023/03/15 07:43:28;;;;;;;17.73;1.95;;;13.50;57.70;;;;;;4778003;29;20055;-72
2023/03/15 07:45:54;;;;;;;11.48;1.98;;;13.40;57.00;;;;;;4807290;29;20067;-73
2023/03/15 07:48:20;;;;;;;11.85;2.25;;;13.20;57.10;;;;;;4817292;29;20473;-73
2023/03/15 07:50:46;;;;;;;15.88;2.08;;;13.10;57.60;;;;;;4817104;29;20447;-73
2023/03/15 07:53:12;;;;;;;11.27;2.05;;;13.00;58.00;;;;;;4804874;29;20513;-73
2023/03/15 07:55:38;;;;;;;13.07;1.58;;;12.90;58.30;;;;;;4808108;29;20192;-74
2023/03/15 07:58:04;;;;;;;12.80;2.38;;;12.90;58.50;;;;;;4809751;29;20138;-75
2023/03/15 08:00:31;;;;;;;10.57;1.42;;;12.90;59.00;;;;;;4807073;29;20055;-74
2023/03/15 08:02:57;;;;;;;13.93;1.92;;;12.80;59.10;;;;;;4810454;29;20046;-77
2023/03/15 08:05:23;;;;;;;8.88;1.23;;;12.80;59.50;;;;;;4811046;29;20062;-73
2023/03/15 08:07:50;;;;;;;15.30;2.00;;;12.80;59.70;;;;;;4808478;29;20059;-75
2023/03/15 08:10:17;;;;;;;14.60;1.92;;;12.80;59.80;;;;;;4794313;29;20061;-73
2023/03/15 08:12:44;;;;;;;17.92;2.22;;;12.80;59.80;;;;;;4808974;29;20057;-74
2023/03/15 08:15:14;;;;;;;9.20;1.48;;;12.80;59.70;;;;;;4794924;29;20095;-73
2023/03/15 08:17:40;;;;;;;13.43;1.33;;;12.80;59.70;;;;;;4791060;30;20498;-72
2023/03/15 08:20:10;;;;;;;7.72;1.15;;;12.80;59.80;;;;;;4808331;29;20477;-73
2023/03/15 08:22:37;;;;;;;9.82;1.80;;;12.70;60.10;;;;;;4804479;29;20055;-73
2023/03/15 08:25:04;;;;;;;8.80;1.10;;;12.70;60.30;;;;;;4806563;29;20039;-74
2023/03/15 08:27:30;;;;;;;9.50;1.30;;;12.70;60.50;;;;;;4809929;29;20046;-74
2023/03/15 08:29:55;;;;;;;8.38;1.48;;;12.60;60.60;;;;;;4808632;29;20512;-74
2023/03/15 08:32:21;;;;;;;9.48;1.45;;;12.60;60.90;;;;;;4801991;29;20059;-74
2023/03/15 08:34:47;;;;;;;7.68;1.10;;;12.60;61.10;;;;;;4790728;29;20058;-72
2023/03/15 08:37:13;;;;;;;8.65;1.10;;;12.60;60.90;;;;;;4791377;29;20050;-72
2023/03/15 08:39:39;;;;;;;9.75;1.15;;;12.60;60.90;;;;;;4795141;29;20535;-73
2023/03/15 08:42:05;;;;;;;5.95;1.05;;;12.60;61.00;;;;;;4808804;29;20051;-72
2023/03/15 08:44:31;;;;;;;7.53;1.20;;;12.60;61.00;;;;;;4808626;29;20055;-71
2023/03/15 08:46:57;;;;;;;8.27;1.60;;;12.60;61.00;;;;;;4809096;29;20355;-71
2023/03/15 08:49:24;;;;;;;12.95;1.50;;;12.60;61.10;;;;;;4808584;29;20099;-72
2023/03/15 08:51:50;;;;;;;4.55;0.73;;;12.60;61.00;;;;;;4808474;29;20105;-71
2023/03/15 08:54:16;;;;;;;5.13;1.38;;;12.60;61.10;;;;;;4808396;29;20101;-71
2023/03/15 08:56:42;;;;;;;6.28;1.30;;;12.60;61.10;;;;;;4808479;29;20492;-71
2023/03/15 08:59:09;;;;;;;7.35;1.27;;;12.60;61.10;;;;;;4806492;29;20051;-73
2023/03/15 09:01:35;;;;;;;12.00;1.20;;;12.60;61.00;;;;;;4801366;29;20050;-76
2023/03/15 09:04:01;;;;;;;9.27;1.67;;;12.70;61.20;;;;;;4808056;29;20047;-71
2023/03/15 09:06:27;;;;;;;8.02;0.93;;;12.80;60.40;;;;;;4808232;29;20086;-72
2023/03/15 09:08:54;;;;;;;6.95;1.38;;;12.90;59.40;;;;;;4808348;29;20066;-72
2023/03/15 09:11:20;;;;;;;7.35;1.10;;;13.10;58.70;;;;;;4807850;29;20051;-71
2023/03/15 09:13:46;;;;;;;6.55;1.05;;;13.40;58.10;;;;;;4808162;29;20047;-71
2023/03/15 09:16:12;;;;;;;6.22;0.77;;;13.60;57.50;;;;;;4807372;29;20555;-71
2023/03/15 09:18:39;;;;;;;11.93;1.15;;;13.80;57.20;;;;;;4807974;29;20058;-72
2023/03/15 09:21:06;;;;;;;7.95;0.93;;;13.90;56.80;;;;;;4807760;29;20067;-71
2023/03/15 09:23:32;;;;;;;5.57;1.08;;;14.10;56.70;;;;;;4807512;29;20047;-76
2023/03/15 09:25:58;;;;;;;10.15;1.05;;;14.20;56.60;;;;;;4778723;30;20062;-75
2023/03/15 09:28:24;;;;;;;7.50;1.20;;;14.30;56.80;;;;;;4798943;29;20115;-74
2023/03/15 09:30:50;;;;;;;12.10;1.08;;;14.30;56.70;;;;;;4811068;29;20050;-76
2023/03/15 09:33:16;;;;;;;13.05;1.48;;;14.40;56.90;;;;;;4812684;29;20119;-73
2023/03/15 09:35:42;;;;;;;12.38;1.17;;;14.40;57.00;;;;;;4808290;29;20067;-76
2023/03/15 09:38:08;;;;;;;9.98;1.17;;;14.40;57.00;;;;;;4807107;29;20049;-75
2023/03/15 09:40:39;;;;;;;11.32;1.30;;;14.40;57.10;;;;;;4807376;29;20050;-75
2023/03/15 09:43:05;;;;;;;11.50;1.73;;;14.40;57.30;;;;;;4807653;29;20059;-72
2023/03/15 09:45:51;;;;;;;17.63;2.50;;;14.40;57.20;;;;;;4808063;29;20058;-73
2023/03/15 09:48:31;;;;;;;18.80;1.98;;;14.40;57.00;;;;;;4807884;29;20084;-71
2023/03/15 09:51:30;;;;;;;17.15;3.05;;;14.30;57.10;;;;;;4803802;29;20467;-72
2023/03/15 09:54:13;;;;;;;11.43;1.67;;;14.30;57.70;;;;;;4782519;30;20063;-72
2023/03/15 09:56:56;;;;;;;11.57;1.63;;;14.20;58.00;;;;;;4789596;29;20085;-72
2023/03/15 09:59:28;;;;;;;11.75;2.13;;;14.30;57.10;;;;;;4804280;29;20481;-74
2023/03/15 10:01:56;;;;;;;9.95;1.58;;;14.30;55.50;;;;;;4797474;29;20055;-71
2023/03/15 10:04:33;;;;;;;7.53;1.27;;;14.30;54.60;;;;;;4789583;30;20116;-72
2023/03/15 10:07:01;;;;;;;8.73;1.20;;;14.30;53.60;;;;;;4789521;30;20128;-71
2023/03/15 10:09:34;;;;;;;6.57;1.00;;;14.30;53.00;;;;;;4798096;29;20176;-71
2023/03/15 10:12:14;;;;;;;8.02;1.70;;;14.30;52.90;;;;;;4807526;29;20058;-71
2023/03/15 10:15:10;;;;;;;8.30;1.25;;;14.30;52.80;;;;;;4805052;29;20065;-70
2023/03/15 10:18:00;;;;;;;4.32;1.10;;;14.30;53.00;;;;;;4807402;29;20055;-70
2023/03/15 10:20:36;;;;;;;8.27;0.90;;;14.30;53.20;;;;;;4806859;29;20059;-71
2023/03/15 10:23:18;;;;;;;6.72;1.20;;;14.20;53.50;;;;;;4808435;29;20407;-71
2023/03/15 10:25:45;;;;;;;6.72;1.27;;;14.20;54.10;;;;;;4795750;29;20090;-71
2023/03/15 10:28:22;;;;;;;8.43;1.23;;;14.20;54.80;;;;;;4810904;29;20122;-71
2023/03/15 10:30:50;;;;;;;7.88;1.13;;;14.20;55.10;;;;;;4811068;29;20054;-71
2023/03/15 10:33:34;;;;;;;7.50;1.50;;;14.10;55.00;;;;;;4811806;29;20055;-70
2023/03/15 10:36:03;;;;;;;5.20;1.23;;;14.10;55.90;;;;;;4811151;29;20452;-71
2023/03/15 10:38:28;;;;;;;11.35;1.33;;;14.10;55.70;;;;;;4810934;29;20043;-71
2023/03/15 10:40:55;;;;;;;7.35;0.98;;;14.10;55.80;;;;;;4807976;29;20048;-71
2023/03/15 10:43:35;;;;;;;5.35;1.10;;;14.10;56.00;;;;;;4789031;30;20059;-71
2023/03/15 10:46:34;;;;;;;4.78;1.05;;;14.00;56.20;;;;;;4799730;29;20348;-71
2023/03/15 10:49:07;;;;;;;7.93;1.33;;;14.10;56.00;;;;;;4781286;30;20052;-72
2023/03/15 10:51:40;;;;;;;5.65;1.48;;;14.10;56.60;;;;;;4792893;30;20071;-77
2023/03/15 10:54:18;;;;;;;3.85;1.05;;;14.00;57.60;;;;;;4792747;30;20103;-74
2023/03/15 10:56:54;;;;;;;6.72;0.88;;;14.10;57.20;;;;;;4777046;30;20059;-71
2023/03/15 10:59:23;;;;;;;5.70;1.27;;;14.00;55.60;;;;;;4798379;29;20057;-73
2023/03/15 11:01:52;;;;;;;6.28;1.50;;;14.00;55.60;;;;;;4810621;29;20321;-75
2023/03/15 11:04:25;;;;;;;7.60;1.20;;;14.00;55.80;;;;;;4810526;29;20051;-73
2023/03/15 11:06:57;;;;;;;8.53;1.97;;;14.00;56.70;;;;;;4809227;29;20043;-73
2023/03/15 11:09:26;;;;;;;14.50;2.13;;;14.00;57.30;;;;;;4810410;29;20133;-73
2023/03/15 11:12:00;;;;;;;10.02;1.58;;;14.00;57.40;;;;;;4810257;29;20134;-72
2023/03/15 11:14:33;;;;;;;9.82;1.60;;;14.10;58.00;;;;;;4809453;29;20486;-74
2023/03/15 11:17:06;;;;;;;19.60;1.77;;;14.00;57.40;;;;;;4810234;29;20090;-78
2023/03/15 11:19:40;;;;;;;17.70;2.50;;;14.00;57.60;;;;;;4783309;29;20090;-72
2023/03/15 11:22:12;;;;;;;22.10;2.78;;;13.90;56.50;;;;;;4788321;29;20416;-74
2023/03/15 11:24:38;;;;;;;15.52;2.85;;;14.00;57.80;;;;;;4809846;29;20462;-74
2023/03/15 11:27:12;;;;;;;19.08;3.17;;;14.00;58.10;;;;;;4810222;29;20100;-73
2023/03/15 11:29:42;;;;;;;21.85;3.42;;;14.00;59.20;;;;;;4810164;29;20062;-73
2023/03/15 11:32:23;;;;;;;25.13;2.92;;;14.00;59.20;;;;;;4791340;29;20142;-75
2023/03/15 11:35:09;;;;;;;17.15;2.47;;;14.00;59.60;;;;;;4790423;29;20062;-75
2023/03/15 11:37:38;;;;;;;25.35;2.30;;;14.00;59.90;;;;;;4802998;29;20528;-76
2023/03/15 11:40:15;;;;;;;29.55;3.53;;;14.00;59.50;;;;;;4805481;29;20058;-76
2023/03/15 11:42:59;;;;;;;23.08;3.30;;;14.00;59.60;;;;;;4809891;29;20058;-75
2023/03/15 11:45:28;;;;;;;24.05;3.35;;;14.00;59.30;;;;;;4809808;29;20090;-76
2023/03/15 11:48:16;;;;;;;21.92;3.53;;;14.00;59.00;;;;;;4809188;29;20050;-77
2023/03/15 11:50:43;;;;;;;20.98;3.15;;;13.90;58.90;;;;;;4792348;29;20046;-76
2023/03/15 11:53:13;;;;;;;29.83;3.47;;;14.00;58.90;;;;;;4793539;29;20417;-74
2023/03/15 11:55:38;;;;;;;21.38;2.67;;;14.00;59.20;;;;;;4813963;29;20378;-74
2023/03/15 11:58:27;;;;;;;16.52;2.38;;;14.10;60.20;;;;;;4827562;29;20046;-77
2023/03/15 12:00:54;;;;;;;24.90;4.20;;;14.10;59.80;;;;;;4795318;29;20055;-77
2023/03/15 12:03:27;;;;;;;15.82;3.15;;;14.20;59.90;;;;;;4809206;29;20055;-73
2023/03/15 12:06:05;;;;;;;13.10;2.37;;;14.30;59.70;;;;;;4809005;29;20051;-76
2023/03/15 12:08:50;;;;;;;21.65;2.80;;;14.40;59.20;;;;;;4809443;29;20138;-74
2023/03/15 12:11:19;;;;;;;12.63;2.88;;;14.40;58.30;;;;;;4796565;29;20083;-73
2023/03/15 12:13:55;;;;;;;14.90;1.98;;;14.40;57.90;;;;;;4808996;29;20062;-75
2023/03/15 12:16:22;;;;;;;14.20;2.38;;;14.40;57.60;;;;;;4808096;29;20145;-74
2023/03/15 12:18:49;;;;;;;13.60;1.58;;;14.40;57.60;;;;;;4809026;29;20054;-74
2023/03/15 12:21:41;;;;;;;8.70;1.45;;;14.30;57.60;;;;;;4808188;29;20050;-76
2023/03/15 12:24:24;;;;;;;9.10;2.45;;;14.30;57.50;;;;;;4803668;29;20094;-77
2023/03/15 12:27:04;;;;;;;8.90;1.92;;;14.20;57.50;;;;;;4808862;29;20062;-74
2023/03/15 12:29:32;;;;;;;14.32;1.80;;;14.20;57.70;;;;;;4809057;29;20051;-76
2023/03/15 12:32:01;;;;;;;7.93;1.55;;;14.20;57.70;;;;;;4808515;29;20082;-70
2023/03/15 12:34:30;;;;;;;10.95;2.20;;;14.20;57.80;;;;;;4809122;29;20055;-77
2023/03/15 12:37:12;;;;;;;12.52;1.48;;;14.10;57.70;;;;;;4808303;29;20123;-72
2023/03/15 12:39:50;;;;;;;9.02;1.52;;;14.10;57.90;;;;;;4808980;29;20511;-74
2023/03/15 12:42:31;;;;;;;11.95;1.63;;;14.10;58.30;;;;;;4809520;29;20058;-73
2023/03/15 12:45:15;;;;;;;12.25;1.40;;;14.10;58.70;;;;;;4807384;29;20066;-73
2023/03/15 12:48:11;;;;;;;9.18;1.40;;;14.10;59.70;;;;;;4798418;29;20126;-73
2023/03/15 12:50:43;;;;;;;6.50;1.33;;;14.00;61.70;;;;;;4808862;29;20082;-74
2023/03/15 12:53:30;;;;;;;10.77;2.22;;;14.10;60.80;;;;;;4806604;29;20191;-76
2023/03/15 12:56:17;;;;;;;10.45;2.15;;;14.10;61.70;;;;;;4808323;29;20055;-74
2023/03/15 12:58:47;;;;;;;12.57;2.28;;;14.10;61.60;;;;;;4806945;29;20050;-74
2023/03/15 13:01:16;;;;;;;7.53;1.75;;;14.10;62.10;;;;;;4804492;29;20050;-75
2023/03/15 13:03:42;;;;;;;14.07;1.95;;;14.10;62.40;;;;;;4805145;29;20061;-78
2023/03/15 13:06:19;;;;;;;6.93;1.55;;;14.20;60.30;;;;;;4790235;30;20058;-75
2023/03/15 13:08:48;;;;;;;7.97;1.60;;;14.20;57.00;;;;;;4825593;29;20603;-75
2023/03/15 13:11:16;;;;;;;22.88;2.97;;;14.10;55.90;;;;;;4826288;29;20069;-74
2023/03/15 13:14:03;;;;;;;13.82;2.63;;;14.10;57.00;;;;;;4818935;29;20077;-74
2023/03/15 13:16:34;;;;;;;17.92;2.80;;;14.10;60.00;;;;;;4795862;29;20505;-77
2023/03/15 13:19:31;;;;;;;24.77;3.13;;;14.20;61.20;;;;;;4789976;30;20070;-74
2023/03/15 13:21:57;;;;;;;20.25;3.35;;;14.40;61.60;;;;;;4793611;29;20142;-73
2023/03/15 13:24:32;;;;;;;27.65;4.55;;;14.50;61.80;;;;;;4797078;29;20352;-75
2023/03/15 13:27:07;;;;;;;22.50;4.03;;;14.60;63.40;;;;;;4790180;29;20123;-74
2023/03/15 13:29:33;;;;;;;26.63;4.22;;;14.70;62.50;;;;;;4789881;30;20051;-75
2023/03/15 13:32:21;;;;;;;23.73;3.75;;;14.80;61.90;;;;;;4789864;29;20066;-76
2023/03/15 13:34:47;;;;;;;32.42;3.85;;;14.90;59.40;;;;;;4808151;29;20059;-74
2023/03/15 13:37:24;;;;;;;19.65;3.08;;;14.90;59.60;;;;;;4792181;29;20698;-75
2023/03/15 13:39:59;;;;;;;28.65;3.95;;;14.90;59.80;;;;;;4804425;29;20047;-76
2023/03/15 13:42:25;;;;;;;17.90;3.15;;;15.00;60.70;;;;;;4789761;29;20130;-72
2023/03/15 13:45:08;;;;;;;21.95;3.35;;;15.00;61.00;;;;;;4794144;29;20472;-72
2023/03/15 13:47:34;;;;;;;24.83;3.72;;;15.00;60.90;;;;;;4805392;29;20058;-71
2023/03/15 13:50:03;;;;;;;28.55;4.63;;;15.00;60.70;;;;;;4807176;29;20051;-70
2023/03/15 13:52:29;;;;;;;26.20;3.67;;;15.10;60.70;;;;;;4805663;29;20092;-71
2023/03/15 13:54:55;;;;;;;21.70;3.33;;;15.10;60.60;;;;;;4799373;29;20055;-71
2023/03/15 13:57:23;;;;;;;35.22;5.45;;;15.10;60.40;;;;;;4792446;29;20066;-73
2023/03/15 14:00:09;;;;;;;34.45;3.92;;;15.10;60.20;;;;;;4793309;29;20199;-72
2023/03/15 14:02:44;;;;;;;21.95;4.03;;;15.20;59.50;;;;;;4789346;30;20062;-72
2023/03/15 14:05:17;;;;;;;22.23;2.70;;;15.20;59.20;;;;;;4793187;30;20055;-72
2023/03/15 14:07:48;;;;;;;18.83;3.30;;;15.30;59.00;;;;;;4793289;30;20537;-72
2023/03/15 14:10:37;;;;;;;21.15;2.97;;;15.30;58.80;;;;;;4793443;30;20376;-73
2023/03/15 14:13:32;;;;;;;14.90;3.03;;;15.30;58.70;;;;;;4793153;30;20055;-72
2023/03/15 14:16:00;;;;;;;20.35;3.50;;;15.30;58.60;;;;;;4793382;30;20063;-72
2023/03/15 14:18:34;;;;;;;12.52;2.50;;;15.20;58.50;;;;;;4793437;30;20422;-72
2023/03/15 14:21:05;;;;;;;19.50;2.92;;;15.20;59.10;;;;;;4793906;29;20047;-73
2023/03/15 14:23:31;;;;;;;17.23;2.58;;;15.10;58.50;;;;;;4811096;29;20128;-73
2023/03/15 14:26:10;;;;;;;16.98;1.98;;;15.10;58.50;;;;;;4811855;29;20051;-73
2023/03/15 14:28:37;;;;;;;10.23;2.65;;;15.00;58.40;;;;;;4811242;29;20047;-73
2023/03/15 14:31:03;;;;;;;9.80;2.15;;;15.00;58.40;;;;;;4811823;29;20109;-72
2023/03/15 14:33:39;;;;;;;13.05;2.03;;;15.00;58.40;;;;;;4811093;29;20090;-74
2023/03/15 14:36:20;;;;;;;8.55;2.40;;;15.00;58.20;;;;;;4794707;29;20046;-72
2023/03/15 14:38:51;;;;;;;12.75;2.25;;;14.90;58.30;;;;;;4810933;29;20055;-72
2023/03/15 14:41:37;;;;;;;11.18;2.05;;;14.80;58.30;;;;;;4811100;29;20062;-73
2023/03/15 14:44:03;;;;;;;12.38;1.85;;;14.80;58.10;;;;;;4810525;29;20103;-74
2023/03/15 14:46:32;;;;;;;11.18;1.30;;;14.80;58.30;;;;;;4807217;29;20043;-73
2023/03/15 14:48:57;;;;;;;16.58;1.92;;;14.80;58.30;;;;;;4792590;30;20058;-77
2023/03/15 14:51:24;;;;;;;9.52;1.50;;;14.80;58.30;;;;;;4805051;29;20137;-76
2023/03/15 14:53:54;;;;;;;12.32;2.60;;;14.80;58.10;;;;;;4810567;29;20502;-77
2023/03/15 14:56:21;;;;;;;12.63;1.52;;;14.80;57.70;;;;;;4810755;29;20050;-76
2023/03/15 14:58:48;;;;;;;17.38;2.25;;;14.80;57.50;;;;;;4810824;29;20066;-76
2023/03/15 15:01:18;;;;;;;14.38;1.58;;;14.80;57.40;;;;;;4810404;29;20061;-77
2023/03/15 15:03:52;;;;;;;16.17;1.90;;;14.70;57.10;;;;;;4793935;29;20118;-76
2023/03/15 15:06:18;;;;;;;16.73;1.98;;;14.70;56.60;;;;;;4810440;29;20070;-76
2023/03/15 15:08:46;;;;;;;15.38;2.78;;;14.70;56.40;;;;;;4809438;29;20055;-75
2023/03/15 15:11:12;;;;;;;18.55;2.15;;;14.70;55.70;;;;;;4810293;29;20478;-76
2023/03/15 15:13:39;;;;;;;13.98;1.67;;;14.70;54.70;;;;;;4807068;29;20138;-75
2023/03/15 15:16:05;;;;;;;18.70;2.60;;;14.70;54.80;;;;;;4793836;29;20074;-76
2023/03/15 15:18:34;;;;;;;22.27;2.53;;;14.70;54.00;;;;;;4805076;29;20059;-76
2023/03/15 15:21:05;;;;;;;14.63;1.95;;;14.90;54.40;;;;;;4789694;29;20125;-76
2023/03/15 15:23:34;;;;;;;21.45;3.05;;;15.00;54.50;;;;;;4810275;29;20058;-76
2023/03/15 15:26:02;;;;;;;20.00;2.35;;;15.10;54.80;;;;;;4809943;29;20054;-77
2023/03/15 15:28:29;;;;;;;17.92;2.42;;;15.10;55.10;;;;;;4793960;29;20054;-76
2023/03/15 15:30:55;;;;;;;14.45;2.22;;;15.20;55.20;;;;;;4809992;29;20050;-75
2023/03/15 15:33:22;;;;;;;14.80;2.63;;;15.30;55.40;;;;;;4809279;29;20055;-77
2023/03/15 15:35:53;;;;;;;19.48;2.03;;;15.30;55.60;;;;;;4808504;29;20051;-75
2023/03/15 15:38:21;;;;;;;18.35;2.53;;;15.30;55.90;;;;;;4800461;29;20048;-75
2023/03/15 15:40:46;;;;;;;13.95;2.08;;;15.30;56.10;;;;;;4803200;29;20497;-76
2023/03/15 15:43:12;;;;;;;15.73;1.80;;;15.30;56.20;;;;;;4806710;29;20139;-75
2023/03/15 15:45:38;;;;;;;11.25;1.73;;;15.30;56.40;;;;;;4809498;29;20470;-76
2023/03/15 15:48:05;;;;;;;17.30;2.75;;;15.40;57.10;;;;;;4792840;29;20111;-75
2023/03/15 15:50:34;;;;;;;22.00;2.50;;;15.40;56.60;;;;;;4804056;29;20122;-74
2023/03/15 15:53:03;;;;;;;15.57;2.05;;;15.40;56.80;;;;;;4810005;29;20062;-75
2023/03/15 15:55:34;;;;;;;18.92;1.42;;;15.40;56.90;;;;;;4809536;29;20058;-76
2023/03/15 15:58:01;;;;;;;11.80;1.50;;;15.50;57.10;;;;;;4792516;29;20094;-74
2023/03/15 16:00:28;;;;;;;14.43;1.60;;;15.60;57.10;;;;;;4801217;29;20084;-75
2023/03/15 16:02:55;;;;;;;16.38;1.52;;;15.60;57.00;;;;;;4793888;29;20155;-74
2023/03/15 16:05:27;;;;;;;14.00;1.30;;;15.70;56.90;;;;;;4809746;29;20055;-75
2023/03/15 16:07:55;;;;;;;9.63;1.30;;;15.90;56.90;;;;;;4809129;29;20199;-74
2023/03/15 16:10:24;;;;;;;8.70;1.40;;;16.00;56.70;;;;;;4809238;29;20055;-76
2023/03/15 16:12:52;;;;;;;10.23;1.20;;;16.00;56.70;;;;;;4808402;29;20050;-75
2023/03/15 16:15:18;;;;;;;8.25;1.13;;;16.10;55.20;;;;;;4809459;29;20105;-74
2023/03/15 16:17:44;;;;;;;10.57;1.15;;;16.10;53.70;;;;;;4809170;29;20092;-75
2023/03/15 16:20:12;;;;;;;11.23;1.23;;;16.00;53.50;;;;;;4807938;29;20050;-75
2023/03/15 16:22:41;;;;;;;9.50;1.50;;;16.00;53.80;;;;;;4804615;29;20043;-75
2023/03/15 16:25:22;;;;;;;9.23;1.00;;;15.90;54.10;;;;;;4807335;29;20419;-74
2023/03/15 16:27:51;;;;;;;8.98;1.05;;;15.90;54.30;;;;;;4793194;29;20055;-74
2023/03/15 16:30:29;;;;;;;12.50;1.33;;;15.90;54.70;;;;;;4808981;29;20055;-74
2023/03/15 16:32:55;;;;;;;13.45;1.73;;;15.80;55.10;;;;;;4808709;29;20141;-74
2023/03/15 16:35:33;;;;;;;16.55;2.08;;;15.70;55.50;;;;;;4808624;29;20119;-73
2023/03/15 16:38:00;;;;;;;18.77;2.90;;;15.70;56.30;;;;;;4809053;29;20051;-74
2023/03/15 16:40:27;;;;;;;13.13;2.15;;;15.80;56.50;;;;;;4809215;29;20059;-74
2023/03/15 16:42:54;;;;;;;33.72;2.65;;;15.80;56.10;;;;;;4808217;29;20050;-72
2023/03/15 16:45:20;;;;;;;14.60;1.85;;;15.90;56.10;;;;;;4807026;29;20126;-76
2023/03/15 16:47:47;;;;;;;24.55;2.78;;;15.80;56.60;;;;;;4807304;29;20130;-75
2023/03/15 16:50:13;;;;;;;24.10;2.85;;;15.80;57.00;;;;;;4792369;29;20478;-75
2023/03/15 16:52:40;;;;;;;23.80;2.90;;;15.90;57.50;;;;;;4807414;29;20046;-74
2023/03/15 16:55:12;;;;;;;29.20;2.97;;;15.90;57.80;;;;;;4791370;29;20058;-75
2023/03/15 16:57:39;;;;;;;30.30;3.08;;;16.00;57.90;;;;;;4792531;29;20061;-76
2023/03/15 17:00:10;;;;;;;26.48;3.00;;;16.00;57.90;;;;;;4808115;29;20062;-75
2023/03/15 17:02:37;;;;;;;32.22;4.57;;;16.00;58.00;;;;;;4803740;29;20416;-73
2023/03/15 17:05:04;;;;;;;40.70;4.88;;;16.00;58.20;;;;;;4803508;29;20126;-73
2023/03/15 17:07:34;;;;;;;49.58;5.75;;;16.00;58.40;;;;;;4808565;29;20092;-73
2023/03/15 17:10:08;;;;;;;36.95;5.13;;;16.00;58.70;;;;;;4808910;29;20051;-72
2023/03/15 17:12:35;;;;;;;34.90;5.75;;;16.00;58.90;;;;;;4787519;30;20055;-72
2023/03/15 17:15:02;;;;;;;40.03;5.60;;;16.00;59.00;;;;;;4800208;29;20066;-75
2023/03/15 17:17:30;;;;;;;35.92;4.15;;;16.10;59.20;;;;;;4808819;29;20069;-73
2023/03/15 17:19:56;;;;;;;28.40;4.57;;;16.10;59.30;;;;;;4808376;29;20054;-73
2023/03/15 17:22:23;;;;;;;38.53;4.22;;;16.10;59.30;;;;;;4808280;29;20168;-75
2023/03/15 17:24:49;;;;;;;47.22;4.57;;;16.00;59.40;;;;;;4808126;29;20390;-72
2023/03/15 17:27:29;;;;;;;30.58;4.25;;;16.00;59.70;;;;;;4777909;29;20142;-75
2023/03/15 17:29:55;;;;;;;38.00;4.53;;;16.10;59.70;;;;;;4808071;29;20047;-73
2023/03/15 17:32:20;;;;;;;24.67;2.60;;;16.10;59.60;;;;;;4807141;29;20053;-74
2023/03/15 17:34:46;;;;;;;24.25;3.58;;;15.90;56.30;;;;;;4808021;29;20443;-74
2023/03/15 17:37:17;;;;;;;31.60;3.35;;;15.40;58.80;;;;;;4807924;29;20134;-73
2023/03/15 17:39:43;;;;;;;27.63;2.88;;;15.60;60.00;;;;;;4808232;29;20054;-75
2023/03/15 17:42:13;;;;;;;37.65;4.22;;;15.60;59.90;;;;;;4783987;30;20043;-74
2023/03/15 17:44:40;;;;;;;26.73;3.22;;;15.60;59.80;;;;;;4774431;30;20091;-73
2023/03/15 17:47:11;;;;;;;23.83;3.75;;;15.60;59.60;;;;;;4790092;30;20120;-75
2023/03/15 17:49:37;;;;;;;24.95;3.60;;;15.70;59.60;;;;;;4774367;30;20062;-72
2023/03/15 17:52:03;;;;;;;31.95;4.25;;;15.60;59.40;;;;;;4790265;30;20108;-75
2023/03/15 17:54:29;;;;;;;17.33;3.45;;;15.60;59.30;;;;;;4790093;30;20058;-74
2023/03/15 17:56:58;;;;;;;16.77;2.05;;;15.60;59.30;;;;;;4790005;30;20097;-76
2023/03/15 17:59:23;;;;;;;18.65;2.92;;;15.60;59.30;;;;;;4789769;30;20052;-75
2023/03/15 18:01:50;;;;;;;15.07;2.05;;;15.50;59.20;;;;;;4774372;30;20116;-74
2023/03/15 18:04:18;;;;;;;17.63;2.30;;;15.50;59.20;;;;;;4789955;30;20088;-76
2023/03/15 18:06:44;;;;;;;17.00;2.53;;;15.40;59.20;;;;;;4789588;30;20055;-74